Time;durP1;ratioP1;P1;durP2;ratioP2;P2;SDS_P1;SDS_P2;PMS_P1;PMS_P2;Temp;Humidity;BMP_temperature;BMP_pressure;BME280_temperature;BME280_humidity;BME280_pressure;Samples;Min_cycle;Max_cycle;Signal;HPM_P1;HPM_P2
2022/04/06 00:00:54;;;;;;;0.85;0.85;;;;;;;9.68;75.64;100012.22;5235239;28;20048;-79
2022/04/06 00:03:24;;;;;;;4.38;2.25;;;;;;;9.73;75.58;100007.66;5194560;28;20033;-78
2022/04/06 00:05:55;;;;;;;0.70;0.60;;;;;;;9.68;75.50;99996.50;5211518;28;20223;-79
2022/04/06 00:08:28;;;;;;;0.40;0.40;;;;;;;9.61;75.75;99995.00;5222131;28;20518;-77
2022/04/06 00:11:02;;;;;;;4.65;2.15;;;;;;;9.63;75.94;99997.56;5198640;28;20512;-77
2022/04/06 00:13:33;;;;;;;0.30;0.30;;;;;;;9.63;75.54;99995.78;5229826;28;20032;-79
2022/04/06 00:16:03;;;;;;;0.30;0.30;;;;;;;9.54;75.84;99991.75;5201430;28;20083;-77
2022/04/06 00:18:34;;;;;;;0.57;0.57;;;;;;;9.51;76.23;99991.00;5172290;28;20029;-80
2022/04/06 00:21:05;;;;;;;0.90;0.90;;;;;;;9.54;76.46;99993.50;5199829;28;20091;-78
2022/04/06 00:23:35;;;;;;;2.00;1.73;;;;;;;9.50;76.31;99994.50;5218305;28;20690;-78
2022/04/06 00:26:06;;;;;;;0.50;0.50;;;;;;;9.53;76.26;99991.81;5214491;28;20840;-78
2022/04/06 00:28:36;;;;;;;1.45;1.35;;;;;;;9.47;75.96;99989.38;5204754;28;20039;-79
2022/04/06 00:31:07;;;;;;;0.65;0.65;;;;;;;9.52;75.82;99995.31;5212847;28;20515;-78
2022/04/06 00:33:37;;;;;;;0.40;0.40;;;;;;;9.52;76.39;99992.72;5212231;28;20087;-80
2022/04/06 00:36:08;;;;;;;0.47;0.47;;;;;;;9.48;76.25;99993.69;5214241;28;20544;-78
2022/04/06 00:38:38;;;;;;;0.32;0.32;;;;;;;9.48;76.26;99998.94;5233465;28;20039;-78
2022/04/06 00:41:09;;;;;;;0.30;0.30;;;;;;;9.38;76.31;99991.38;5212660;28;20415;-78
2022/04/06 00:43:42;;;;;;;0.52;0.52;;;;;;;9.43;76.03;99999.09;5199518;28;20021;-78
2022/04/06 00:46:13;;;;;;;0.60;0.60;;;;;;;9.39;76.58;99980.00;5227714;28;20045;-79
2022/04/06 00:48:47;;;;;;;1.20;1.20;;;;;;;9.39;75.97;99987.88;5213658;28;20044;-79
2022/04/06 00:51:18;;;;;;;0.75;0.75;;;;;;;9.40;76.14;99981.72;5208931;28;20029;-79
2022/04/06 00:53:48;;;;;;;0.70;0.70;;;;;;;9.39;76.20;99987.03;5198535;28;20045;-78
2022/04/06 00:56:19;;;;;;;1.73;1.05;;;;;;;9.47;75.86;99981.50;5226933;28;20036;-78
2022/04/06 00:58:49;;;;;;;0.70;0.65;;;;;;;9.37;75.89;99979.25;5217235;28;20157;-80
2022/04/06 01:01:20;;;;;;;0.40;0.40;;;;;;;9.40;75.71;99970.41;5198835;28;20036;-80
2022/04/06 01:03:50;;;;;;;0.70;0.70;;;;;;;9.45;75.82;99965.88;5198375;28;20143;-79
2022/04/06 01:06:21;;;;;;;1.45;0.98;;;;;;;9.51;75.52;99973.50;5221460;28;20044;-78
2022/04/06 01:08:52;;;;;;;0.60;0.60;;;;;;;9.46;75.74;99970.19;5200520;28;20391;-79
2022/04/06 01:11:23;;;;;;;4.43;1.67;;;;;;;9.32;75.93;99965.44;5233738;28;20581;-79
2022/04/06 01:13:57;;;;;;;0.47;0.47;;;;;;;9.27;76.13;99973.44;5232893;28;20028;-78
2022/04/06 01:16:28;;;;;;;1.15;1.15;;;;;;;9.28;76.11;99964.69;5203629;28;20037;-77
2022/04/06 01:18:59;;;;;;;7.32;2.15;;;;;;;9.34;75.83;99968.84;5198315;28;20037;-81
2022/04/06 01:21:29;;;;;;;0.30;0.30;;;;;;;9.38;76.07;99970.44;5217847;28;20062;-78
2022/04/06 01:24:00;;;;;;;0.65;0.65;;;;;;;9.26;75.71;99957.78;5221711;28;20028;-78
2022/04/06 01:26:30;;;;;;;0.43;0.43;;;;;;;9.26;76.01;99965.66;5222433;28;20044;-77
2022/04/06 01:29:01;;;;;;;0.40;0.40;;;;;;;9.25;75.79;99966.53;5203866;28;20055;-80
2022/04/06 01:31:31;;;;;;;0.30;0.30;;;;;;;9.33;75.83;99961.91;5219825;28;20041;-78
2022/04/06 01:34:02;;;;;;;2.58;1.63;;;;;;;9.35;75.63;99965.34;5200142;28;20064;-78
2022/04/06 01:36:32;;;;;;;0.63;0.63;;;;;;;9.28;75.98;99958.59;5221470;28;20064;-78
2022/04/06 01:39:03;;;;;;;0.30;0.30;;;;;;;9.31;75.88;99958.47;5197889;28;20029;-78
2022/04/06 01:41:37;;;;;;;1.98;1.40;;;;;;;9.27;75.72;99954.28;5197993;28;20040;-79
2022/04/06 01:44:08;;;;;;;0.30;0.30;;;;;;;9.37;75.68;99950.44;5201403;28;20058;-79
2022/04/06 01:46:38;;;;;;;0.90;0.90;;;;;;;9.31;75.03;99949.78;5197635;28;20037;-78
2022/04/06 01:52:12;;;;;;;0.47;0.47;;;;;;;9.27;75.75;99957.72;5199797;28;20577;-79
2022/04/06 01:54:45;;;;;;;0.75;0.75;;;;;;;9.25;75.54;99948.22;5191740;28;20029;-78
2022/04/06 01:57:16;;;;;;;0.88;0.88;;;;;;;9.25;75.29;99943.84;5188757;28;20029;-79
2022/04/06 01:59:47;;;;;;;3.25;1.20;;;;;;;9.29;75.59;99944.59;5216610;28;20125;-78
2022/04/06 02:02:20;;;;;;;0.45;0.45;;;;;;;9.22;75.56;99937.84;5219530;28;20033;-77
2022/04/06 02:04:50;;;;;;;0.40;0.40;;;;;;;9.25;75.39;99943.00;5219040;28;20501;-80
2022/04/06 02:07:20;;;;;;;1.35;1.25;;;;;;;9.26;75.71;99942.09;5208284;28;20041;-78
2022/04/06 02:09:51;;;;;;;0.30;0.30;;;;;;;9.22;75.32;99941.34;5198905;28;20048;-80
2022/04/06 02:12:22;;;;;;;0.30;0.30;;;;;;;9.18;75.53;99931.88;5196763;28;20035;-78
2022/04/06 02:14:56;;;;;;;0.50;0.50;;;;;;;9.29;75.51;99944.59;5199641;28;20544;-78
2022/04/06 02:17:28;;;;;;;0.40;0.40;;;;;;;9.23;75.35;99939.56;5202215;28;20044;-79
2022/04/06 02:19:59;;;;;;;0.82;0.82;;;;;;;9.23;74.98;99935.19;5215964;28;20060;-81
2022/04/06 02:22:29;;;;;;;0.30;0.30;;;;;;;9.22;75.40;99928.25;5188108;28;20455;-78
2022/04/06 02:25:00;;;;;;;0.40;0.40;;;;;;;9.19;75.46;99930.13;5178479;28;20112;-80
2022/04/06 02:27:30;;;;;;;0.57;0.57;;;;;;;9.25;75.33;99928.16;5196335;28;20704;-78
2022/04/06 02:30:00;;;;;;;0.30;0.30;;;;;;;9.20;75.36;99930.06;5197749;28;20559;-79
2022/04/06 02:32:31;;;;;;;0.32;0.32;;;;;;;9.22;75.63;99924.75;5195458;28;20112;-79
2022/04/06 02:35:01;;;;;;;0.95;0.95;;;;;;;9.21;75.15;99920.47;5198526;28;20032;-79
2022/04/06 02:37:32;;;;;;;0.50;0.50;;;;;;;9.13;75.36;99912.84;5175917;28;20112;-78
2022/04/06 02:40:04;;;;;;;0.82;0.82;;;;;;;9.14;75.60;99920.63;5215546;28;20437;-78
2022/04/06 02:42:35;;;;;;;0.80;0.80;;;;;;;9.12;75.50;99922.47;5198334;28;20045;-78
2022/04/06 02:45:05;;;;;;;0.60;0.60;;;;;;;9.14;75.80;99920.63;5199319;28;20040;-78
2022/04/06 02:47:36;;;;;;;0.30;0.30;;;;;;;9.21;75.36;99915.22;5197689;28;20043;-80
2022/04/06 02:50:07;;;;;;;0.52;0.52;;;;;;;9.09;75.74;99906.88;5178066;28;20261;-78
2022/04/06 02:52:41;;;;;;;6.55;1.42;;;;;;;9.12;75.63;99908.53;5181285;28;20040;-80
2022/04/06 02:55:12;;;;;;;0.32;0.32;;;;;;;9.07;76.21;99911.28;5217178;28;20068;-80
2022/04/06 02:57:43;;;;;;;0.98;0.98;;;;;;;9.05;76.02;99909.63;5180914;28;20064;-79
2022/04/06 03:00:14;;;;;;;0.90;0.88;;;;;;;9.06;75.90;99900.88;5177969;28;20240;-78
2022/04/06 03:02:46;;;;;;;0.63;0.63;;;;;;;9.08;75.38;99905.16;5188561;28;20041;-78
2022/04/06 03:05:16;;;;;;;0.45;0.45;;;;;;;9.04;75.89;99900.94;5191982;28;20048;-80
2022/04/06 03:07:47;;;;;;;0.50;0.50;;;;;;;9.06;76.29;99901.72;5176631;28;20435;-78
2022/04/06 03:10:17;;;;;;;0.70;0.55;;;;;;;9.07;75.92;99897.38;5191794;28;20051;-78
2022/04/06 03:12:48;;;;;;;0.50;0.50;;;;;;;9.11;76.00;99899.84;5175531;28;20086;-78
2022/04/06 03:15:19;;;;;;;0.52;0.52;;;;;;;9.01;75.99;99895.81;5199234;28;20195;-78
2022/04/06 03:17:49;;;;;;;0.80;0.65;;;;;;;9.00;76.00;99896.72;5177823;28;20037;-80
2022/04/06 03:20:20;;;;;;;0.82;0.82;;;;;;;9.02;76.26;99896.66;5198681;28;20029;-78
2022/04/06 03:22:50;;;;;;;0.52;0.52;;;;;;;9.05;76.30;99900.00;5167238;28;20566;-78
2022/04/06 03:25:21;;;;;;;2.20;1.50;;;;;;;9.03;75.74;99895.75;5195662;28;20074;-81
2022/04/06 03:27:53;;;;;;;1.08;1.08;;;;;;;9.13;75.70;99898.00;5211635;28;20437;-79
2022/04/06 03:30:23;;;;;;;0.55;0.55;;;;;;;9.00;75.68;99896.72;5192760;28;20136;-78
2022/04/06 03:32:54;;;;;;;2.40;1.08;;;;;;;8.95;75.41;99894.25;5201015;28;20044;-80
2022/04/06 03:35:24;;;;;;;0.55;0.55;;;;;;;8.96;75.87;99900.34;5200830;28;20032;-78
2022/04/06 03:37:57;;;;;;;0.43;0.43;;;;;;;9.00;75.35;99893.25;5214741;28;20041;-79
2022/04/06 03:40:31;;;;;;;1.25;1.25;;;;;;;8.95;75.73;99891.63;5211151;28;20175;-81
2022/04/06 03:43:01;;;;;;;0.82;0.82;;;;;;;8.91;75.40;99881.31;5236606;28;20109;-78
2022/04/06 03:45:32;;;;;;;23.58;1.10;;;;;;;8.92;75.19;99883.03;5194548;28;20033;-80
2022/04/06 03:48:03;;;;;;;0.75;0.75;;;;;;;9.03;75.32;99874.81;5199804;28;20032;-80
2022/04/06 03:50:33;;;;;;;1.23;1.10;;;;;;;8.98;74.74;99869.72;5168249;28;20034;-79
2022/04/06 03:53:07;;;;;;;2.00;1.25;;;;;;;8.94;74.36;99876.00;5215614;28;20036;-78
2022/04/06 03:55:37;;;;;;;6.13;3.05;;;;;;;8.92;74.08;99873.44;5198701;28;20041;-77
2022/04/06 03:58:08;;;;;;;0.75;0.75;;;;;;;8.89;73.93;99868.31;5201421;28;20105;-78
2022/04/06 04:00:39;;;;;;;1.17;1.05;;;;;;;8.90;73.90;99863.91;5217592;28;20367;-78
2022/04/06 04:03:09;;;;;;;0.35;0.35;;;;;;;8.90;72.96;99864.78;5204294;28;20032;-80
2022/04/06 04:05:39;;;;;;;3.50;1.40;;;;;;;8.89;73.69;99857.84;5207241;28;20092;-79
2022/04/06 04:08:10;;;;;;;0.40;0.40;;;;;;;8.89;73.36;99863.06;5221480;28;20422;-78
2022/04/06 04:10:40;;;;;;;2.17;0.77;;;;;;;8.92;73.10;99862.97;5217183;28;20128;-78
2022/04/06 04:13:12;;;;;;;0.30;0.30;;;;;;;8.82;73.14;99851.94;5199143;28;20028;-78
2022/04/06 04:15:42;;;;;;;0.40;0.40;;;;;;;8.84;73.10;99859.75;5218953;28;20533;-78
2022/04/06 04:18:13;;;;;;;0.68;0.68;;;;;;;8.88;73.09;99853.50;5238034;28;20111;-78
2022/04/06 04:20:45;;;;;;;0.40;0.40;;;;;;;8.85;72.83;99863.22;5215218;28;20041;-78
2022/04/06 04:23:16;;;;;;;1.73;1.50;;;;;;;8.83;73.10;99858.06;5202272;28;20029;-80
2022/04/06 04:25:46;;;;;;;2.75;1.08;;;;;;;8.88;72.78;99855.28;5182670;28;20067;-78
2022/04/06 04:28:17;;;;;;;0.35;0.35;;;;;;;8.86;73.20;99851.84;5200828;28;20511;-78
2022/04/06 04:30:47;;;;;;;0.40;0.40;;;;;;;8.87;73.19;99853.56;5204887;28;20424;-77
2022/04/06 04:33:18;;;;;;;0.40;0.40;;;;;;;8.90;72.98;99853.44;5204009;28;20263;-78
2022/04/06 04:35:49;;;;;;;0.38;0.38;;;;;;;8.89;72.98;99857.84;5236371;28;21028;-77
2022/04/06 04:38:19;;;;;;;0.63;0.63;;;;;;;8.82;72.81;99857.19;5196208;28;20034;-77
2022/04/06 04:40:50;;;;;;;1.05;1.05;;;;;;;8.80;73.33;99866.84;5217840;28;20416;-77
2022/04/06 04:43:22;;;;;;;0.60;0.60;;;;;;;8.81;73.58;99865.09;5212728;28;20033;-78
2022/04/06 04:45:52;;;;;;;0.40;0.40;;;;;;;8.85;73.25;99860.59;5219979;28;20576;-77
2022/04/06 04:48:23;;;;;;;0.55;0.55;;;;;;;8.88;73.66;99860.50;5219226;28;20115;-79
2022/04/06 04:50:53;;;;;;;1.60;1.50;;;;;;;8.85;74.02;99863.22;5235594;28;20032;-77
2022/04/06 04:53:25;;;;;;;0.30;0.30;;;;;;;8.91;73.82;99863.00;5234659;28;20590;-77
2022/04/06 04:55:55;;;;;;;0.85;0.85;;;;;;;8.86;73.83;99857.94;5215417;28;20031;-78
2022/04/06 04:58:27;;;;;;;1.20;0.95;;;;;;;8.80;74.28;99858.16;5236799;28;20438;-78
2022/04/06 05:00:57;;;;;;;0.52;0.52;;;;;;;8.82;74.18;99857.19;5195782;28;20048;-81
2022/04/06 05:03:29;;;;;;;0.40;0.40;;;;;;;8.84;74.43;99858.88;5214092;28;20035;-79
2022/04/06 05:05:59;;;;;;;0.60;0.60;;;;;;;8.89;74.08;99852.59;5172964;28;20444;-81
2022/04/06 05:08:29;;;;;;;0.95;0.93;;;;;;;8.88;73.56;99844.81;5199860;28;20024;-78
2022/04/06 05:11:00;;;;;;;0.35;0.35;;;;;;;8.82;73.65;99844.09;5171851;28;20033;-80
2022/04/06 05:13:34;;;;;;;0.32;0.32;;;;;;;8.80;73.93;99848.53;5190915;28;20040;-78
2022/04/06 05:16:04;;;;;;;1.23;1.23;;;;;;;8.81;74.04;99834.53;5175021;28;20029;-80
2022/04/06 05:18:35;;;;;;;0.52;0.52;;;;;;;8.87;73.26;99835.25;5211392;28;20294;-79
2022/04/06 05:21:07;;;;;;;0.45;0.45;;;;;;;8.81;73.90;99839.78;5194949;28;20041;-78
2022/04/06 05:23:39;;;;;;;;;;;;;;;8.82;74.02;99844.09;5182976;28;20588;-77
2022/04/06 05:26:09;;;;;;;0.70;0.70;;;;;;;8.81;73.63;99845.00;5160392;28;19999;-77
2022/04/06 05:28:39;;;;;;;0.45;0.45;;;;;;;8.80;73.36;99845.91;5194719;28;20033;-77
2022/04/06 05:31:10;;;;;;;0.80;0.80;;;;;;;8.84;73.45;99853.66;5185270;28;20114;-76
2022/04/06 05:33:40;;;;;;;0.60;0.60;;;;;;;8.88;73.59;99850.06;5200006;28;20111;-76
2022/04/06 05:36:12;;;;;;;0.60;0.60;;;;;;;8.84;73.29;99853.66;5166540;28;20065;-77
2022/04/06 05:38:42;;;;;;;1.75;1.30;;;;;;;8.84;73.11;99840.59;5170486;28;20401;-77
2022/04/06 05:41:13;;;;;;;0.68;0.68;;;;;;;8.89;73.35;99844.75;5221614;28;20307;-78
2022/04/06 05:43:43;;;;;;;0.55;0.55;;;;;;;8.88;72.86;99856.13;5196156;28;20044;-77
2022/04/06 05:46:14;;;;;;;0.30;0.30;;;;;;;8.87;72.48;99853.56;5165246;28;20132;-77
2022/04/06 05:48:44;;;;;;;0.50;0.50;;;;;;;8.98;72.79;99841.81;5197017;28;20044;-77
2022/04/06 05:51:15;;;;;;;2.25;1.30;;;;;;;8.86;73.23;99841.41;5197004;28;20068;-77
2022/04/06 05:53:48;;;;;;;0.77;0.77;;;;;;;8.85;72.87;99840.53;5199901;28;20045;-76
2022/04/06 05:56:19;;;;;;;;;;;;;;;8.81;72.79;99842.38;5204696;28;20025;-77
2022/04/06 05:58:49;;;;;;;0.30;0.30;;;;;;;8.88;72.52;99835.19;5206298;28;19919;-76
2022/04/06 06:01:20;;;;;;;0.93;0.93;;;;;;;8.84;73.22;99837.97;5179882;28;20662;-77
2022/04/06 06:03:50;;;;;;;0.40;0.40;;;;;;;8.85;72.72;99834.44;5213701;28;20838;-77
2022/04/06 06:06:20;;;;;;;1.67;1.05;;;;;;;8.85;72.75;99840.53;5210346;28;20072;-77
2022/04/06 06:08:52;;;;;;;0.77;0.77;;;;;;;8.80;72.58;99832.81;5196750;28;20476;-77
2022/04/06 06:11:22;;;;;;;0.70;0.70;;;;;;;8.80;72.85;99827.59;5173855;28;20036;-76
2022/04/06 06:13:53;;;;;;;0.70;0.70;;;;;;;8.87;72.47;99830.03;5209763;28;20233;-76
2022/04/06 06:16:24;;;;;;;0.30;0.30;;;;;;;8.87;72.59;99840.50;5173576;28;20452;-76
2022/04/06 06:18:56;;;;;;;0.40;0.40;;;;;;;8.88;72.57;99836.97;5169057;28;20501;-76
2022/04/06 06:21:31;;;;;;;0.40;0.40;;;;;;;8.87;72.45;99833.47;5171434;28;20068;-77
2022/04/06 06:24:06;;;;;;;0.50;0.50;;;;;;;8.80;72.64;99837.22;5199082;28;20053;-76
2022/04/06 06:26:38;;;;;;;2.15;1.00;;;;;;;8.81;72.28;99839.78;5197811;28;20064;-77
2022/04/06 06:29:09;;;;;;;0.50;0.50;;;;;;;8.86;72.13;99833.53;5182984;28;20033;-77
2022/04/06 06:31:39;;;;;;;0.35;0.35;;;;;;;8.82;71.93;99833.63;5199384;28;20037;-77
2022/04/06 06:34:10;;;;;;;0.70;0.70;;;;;;;8.78;72.38;99839.03;5184502;28;20571;-77
2022/04/06 06:36:40;;;;;;;1.02;0.95;;;;;;;8.80;72.58;99843.28;5201816;28;20090;-77
2022/04/06 06:39:11;;;;;;;0.82;0.82;;;;;;;8.85;71.93;99844.91;5179755;28;20041;-77
2022/04/06 06:41:43;;;;;;;0.30;0.30;;;;;;;8.90;72.09;99842.97;5170571;28;20080;-76
2022/04/06 06:44:13;;;;;;;0.40;0.40;;;;;;;8.82;72.38;99833.63;5181796;28;20065;-76
2022/04/06 06:46:44;;;;;;;0.30;0.30;;;;;;;8.80;72.17;99843.28;5224934;28;20086;-76
2022/04/06 06:49:15;;;;;;;1.33;1.30;;;;;;;8.79;72.80;99836.38;5210403;28;20083;-76
2022/04/06 06:51:46;;;;;;;0.40;0.40;;;;;;;8.84;72.84;99832.72;5175703;28;20144;-76
2022/04/06 06:54:16;;;;;;;0.73;0.73;;;;;;;8.95;72.13;99835.84;5194291;28;20097;-74
2022/04/06 06:56:47;;;;;;;0.43;0.43;;;;;;;8.86;72.62;99841.41;5199196;28;20047;-77
2022/04/06 06:59:17;;;;;;;0.70;0.70;;;;;;;8.84;73.18;99835.34;5199338;28;20037;-77
2022/04/06 07:01:51;;;;;;;0.38;0.38;;;;;;;8.87;73.37;99848.34;5167244;28;20128;-76
2022/04/06 07:04:22;;;;;;;;;;;;;;;8.88;73.12;99832.56;5195216;28;20416;-77
2022/04/06 07:06:52;;;;;;;0.50;0.50;;;;;;;8.89;72.58;99836.03;5164152;28;19947;-76
2022/04/06 07:09:23;;;;;;;0.40;0.40;;;;;;;8.85;73.01;99830.06;5195969;28;20033;-78
2022/04/06 07:11:53;;;;;;;0.30;0.30;;;;;;;8.86;73.12;99833.53;5182942;28;20330;-77
2022/04/06 07:14:25;;;;;;;0.52;0.52;;;;;;;8.89;72.97;99820.34;5168155;28;20033;-77
2022/04/06 07:16:55;;;;;;;2.00;1.02;;;;;;;8.87;72.42;99806.47;5223965;28;20094;-78
2022/04/06 07:19:26;;;;;;;1.13;0.60;;;;;;;8.90;72.60;99815.06;5200734;28;20041;-77
2022/04/06 07:21:56;;;;;;;0.50;0.50;;;;;;;8.88;72.49;99819.50;5204193;28;20043;-77
2022/04/06 07:24:27;;;;;;;0.70;0.70;;;;;;;8.91;72.67;99813.31;5188783;28;20064;-77
2022/04/06 07:27:01;;;;;;;0.38;0.38;;;;;;;8.97;71.92;99802.63;5198089;28;20623;-78
2022/04/06 07:29:31;;;;;;;0.85;0.85;;;;;;;8.91;72.77;99800.22;5203398;28;20037;-76
2022/04/06 07:32:02;;;;;;;0.40;0.40;;;;;;;8.93;72.42;99806.25;5200339;28;20036;-77
2022/04/06 07:34:32;;;;;;;0.50;0.50;;;;;;;8.95;72.32;99818.38;5216906;28;20515;-77
2022/04/06 07:37:03;;;;;;;0.35;0.35;;;;;;;8.98;72.09;99804.31;5198016;28;20033;-77
2022/04/06 07:39:33;;;;;;;0.30;0.30;;;;;;;8.88;72.29;99808.19;5195733;28;20038;-77
2022/04/06 07:42:04;;;;;;;0.50;0.50;;;;;;;8.83;72.25;99810.97;5191605;28;20111;-76
2022/04/06 07:44:34;;;;;;;0.40;0.40;;;;;;;8.83;72.61;99808.34;5190993;28;20057;-77
2022/04/06 07:47:05;;;;;;;0.30;0.30;;;;;;;8.87;72.45;99806.47;5199501;28;20055;-77
2022/04/06 07:49:35;;;;;;;0.40;0.40;;;;;;;8.89;71.92;99804.63;5172962;28;20028;-76
2022/04/06 07:52:07;;;;;;;0.32;0.32;;;;;;;8.84;71.96;99803.97;5173074;28;20041;-77
2022/04/06 07:54:37;;;;;;;0.30;0.30;;;;;;;8.87;72.02;99801.25;5179817;28;20048;-76
2022/04/06 07:57:08;;;;;;;0.38;0.38;;;;;;;8.84;72.26;99807.44;5187901;28;20033;-77
2022/04/06 07:59:38;;;;;;;0.30;0.30;;;;;;;8.89;71.41;99799.41;5214963;28;20036;-77
2022/04/06 08:02:09;;;;;;;0.85;0.85;;;;;;;8.91;70.94;99797.59;5190399;28;20037;-77
2022/04/06 08:04:42;;;;;;;0.30;0.30;;;;;;;8.85;70.69;99798.66;5197042;28;20501;-76
2022/04/06 08:07:13;;;;;;;;;;;;;;;8.93;70.74;99796.63;5205879;28;20117;-77
2022/04/06 08:09:43;;;;;;;0.30;0.30;;;;;;;8.92;69.47;99807.16;5202092;28;20483;-76
2022/04/06 08:12:14;;;;;;;1.58;1.48;;;;;;;8.92;68.87;99804.56;5192156;28;20036;-77
2022/04/06 08:14:47;;;;;;;0.30;0.30;;;;;;;8.90;69.66;99801.13;5217210;28;20295;-76
2022/04/06 08:17:17;;;;;;;2.28;0.95;;;;;;;8.90;68.93;99803.75;5220340;28;20066;-77
2022/04/06 08:19:48;;;;;;;0.30;0.30;;;;;;;8.94;69.89;99805.34;5203674;28;20044;-76
2022/04/06 08:22:18;;;;;;;0.30;0.30;;;;;;;8.96;69.54;99806.16;5232612;28;20028;-77
2022/04/06 08:24:49;;;;;;;0.40;0.40;;;;;;;9.02;69.02;99805.06;5209300;28;20050;-77
2022/04/06 08:27:20;;;;;;;1.30;1.20;;;;;;;8.99;69.17;99806.03;5184833;28;20124;-77
2022/04/06 08:29:54;;;;;;;0.30;0.30;;;;;;;9.04;69.64;99808.50;5206537;28;22071;-76
2022/04/06 08:32:24;;;;;;;0.30;0.30;;;;;;;8.97;69.33;99802.63;5217424;28;20315;-76
2022/04/06 08:34:55;;;;;;;0.75;0.75;;;;;;;8.99;68.34;99800.81;5201086;28;20029;-77
2022/04/06 08:37:29;;;;;;;0.30;0.30;;;;;;;8.98;68.65;99799.09;5227437;28;20055;-76
2022/04/06 08:39:59;;;;;;;0.40;0.40;;;;;;;9.03;68.23;99786.72;5198996;28;20549;-76
2022/04/06 08:42:32;;;;;;;0.30;0.30;;;;;;;9.03;67.91;99786.72;5187340;28;20045;-75
2022/04/06 08:45:09;;;;;;;0.40;0.40;;;;;;;9.01;67.01;99796.38;5178120;28;20033;-75
2022/04/06 08:47:41;;;;;;;0.52;0.52;;;;;;;8.99;67.57;99790.34;5174930;28;20055;-75
2022/04/06 08:50:12;;;;;;;0.30;0.30;;;;;;;9.08;67.42;99786.56;5195991;28;20060;-75
2022/04/06 08:52:43;;;;;;;0.30;0.30;;;;;;;9.14;67.14;99779.31;5177153;28;20288;-75
2022/04/06 08:55:15;;;;;;;0.30;0.30;;;;;;;9.15;66.27;99777.56;5190032;28;21779;-76
2022/04/06 08:57:45;;;;;;;0.60;0.60;;;;;;;9.21;66.57;99766.03;5216060;28;20063;-76
2022/04/06 09:00:18;;;;;;;1.63;1.42;;;;;;;9.27;66.55;99765.78;5199194;28;20740;-76
2022/04/06 09:02:49;;;;;;;0.30;0.30;;;;;;;9.34;65.52;99776.91;5205145;28;20036;-76
2022/04/06 09:05:24;;;;;;;1.55;1.17;;;;;;;9.34;66.12;99769.88;5203107;28;20399;-76
2022/04/06 09:07:55;;;;;;;0.40;0.40;;;;;;;9.38;65.78;99766.22;5172710;28;20064;-76
2022/04/06 09:10:33;;;;;;;0.63;0.60;;;;;;;9.44;66.32;99778.25;5184470;28;20037;-76
2022/04/06 09:13:12;;;;;;;5.95;0.82;;;;;;;9.52;65.60;99775.34;5230609;28;20048;-76
2022/04/06 09:15:44;;;;;;;0.30;0.30;;;;;;;9.58;64.97;99775.09;5187001;28;20058;-75
2022/04/06 09:18:15;;;;;;;0.30;0.30;;;;;;;9.59;66.06;99779.44;5211667;28;20028;-76
2022/04/06 09:20:51;;;;;;;0.40;0.40;;;;;;;9.66;65.95;99777.44;5195376;28;20521;-76
2022/04/06 09:23:21;;;;;;;0.30;0.30;;;;;;;9.71;64.82;99772.88;5212266;28;20397;-77
2022/04/06 09:25:52;;;;;;;1.00;0.98;;;;;;;9.68;64.70;99763.38;5210268;28;20041;-76
2022/04/06 09:28:23;;;;;;;0.95;0.70;;;;;;;9.66;64.67;99773.06;5214250;28;20035;-77
2022/04/06 09:30:53;;;;;;;0.77;0.68;;;;;;;9.72;64.63;99774.59;5213660;28;20041;-77
2022/04/06 09:33:28;;;;;;;0.45;0.45;;;;;;;9.75;64.37;99780.56;5222996;28;20040;-77
2022/04/06 09:35:58;;;;;;;0.30;0.30;;;;;;;9.73;64.05;99774.53;5212983;28;20032;-77
2022/04/06 09:38:32;;;;;;;0.52;0.52;;;;;;;9.83;64.24;99776.78;5180946;28;20040;-77
2022/04/06 09:41:15;;;;;;;0.30;0.30;;;;;;;9.79;65.06;99775.22;5208099;28;20033;-77
2022/04/06 09:43:48;;;;;;;1.35;1.30;;;;;;;9.85;64.69;99780.19;5214747;28;20068;-77
2022/04/06 09:49:19;;;;;;;0.40;0.40;;;;;;;9.73;64.86;99776.28;5214805;28;20124;-76
2022/04/06 09:51:50;;;;;;;1.45;1.27;;;;;;;9.76;65.73;99776.16;5213217;28;20043;-77
2022/04/06 09:54:26;;;;;;;0.30;0.30;;;;;;;9.79;65.38;99775.22;5214976;28;20059;-75
2022/04/06 09:56:58;;;;;;;0.30;0.30;;;;;;;9.72;64.93;99770.19;5214128;28;20040;-76
2022/04/06 09:59:29;;;;;;;1.13;1.02;;;;;;;9.73;65.87;99765.81;5218833;28;20623;-77
2022/04/06 10:02:05;;;;;;;0.52;0.52;;;;;;;9.73;65.17;99774.53;5197942;28;20109;-78
2022/04/06 10:04:38;;;;;;;0.40;0.40;;;;;;;9.71;65.67;99771.09;5202908;28;20033;-76
2022/04/06 10:07:08;;;;;;;0.40;0.40;;;;;;;9.74;66.04;99768.38;5201273;28;20399;-77
2022/04/06 10:09:40;;;;;;;1.00;0.88;;;;;;;9.80;66.13;99769.03;5192255;28;20374;-76
2022/04/06 10:12:11;;;;;;;0.50;0.50;;;;;;;9.81;67.06;99768.13;5204980;28;20041;-76
2022/04/06 10:14:42;;;;;;;0.30;0.30;;;;;;;9.80;66.47;99774.28;5201147;28;20032;-76
2022/04/06 10:17:13;;;;;;;0.57;0.57;;;;;;;9.76;66.39;99757.81;5199689;28;20033;-76
2022/04/06 10:19:51;;;;;;;0.73;0.73;;;;;;;9.80;66.86;99763.78;5215714;28;20051;-76
2022/04/06 10:22:39;;;;;;;0.30;0.30;;;;;;;9.79;67.23;99754.25;5200259;28;20032;-76
2022/04/06 10:25:17;;;;;;;0.25;0.25;;;;;;;9.80;66.59;99758.56;5215337;28;20117;-77
2022/04/06 10:27:53;;;;;;;0.50;0.50;;;;;;;9.82;66.11;99759.34;5213743;28;20525;-76
2022/04/06 10:30:26;;;;;;;0.40;0.40;;;;;;;9.77;66.17;99752.53;5215249;28;20361;-76
2022/04/06 10:32:57;;;;;;;3.83;2.15;;;;;;;9.79;66.34;99755.09;5214560;28;20489;-77
2022/04/06 10:35:34;;;;;;;0.40;0.40;;;;;;;9.82;66.42;99754.13;5215814;28;20052;-77
2022/04/06 10:38:04;;;;;;;0.38;0.38;;;;;;;9.85;66.77;99740.91;5215873;28;20551;-76
2022/04/06 10:40:43;;;;;;;0.75;0.75;;;;;;;9.80;66.64;99734.97;5195271;28;20269;-77
2022/04/06 10:43:36;;;;;;;1.05;1.05;;;;;;;9.80;67.36;99740.22;5213813;28;20033;-76
2022/04/06 10:46:08;;;;;;;0.50;0.50;;;;;;;9.89;67.03;99745.09;5198989;28;20103;-77
2022/04/06 10:49:06;;;;;;;0.30;0.30;;;;;;;9.83;67.17;99727.00;5194813;28;20087;-77
2022/04/06 10:51:39;;;;;;;1.02;1.02;;;;;;;9.90;67.39;99736.31;5216539;28;20037;-76
2022/04/06 10:54:12;;;;;;;0.40;0.40;;;;;;;9.99;67.41;99722.84;5217837;28;20032;-76
2022/04/06 10:56:53;;;;;;;0.30;0.30;;;;;;;9.93;67.29;99725.72;5215354;28;20033;-76
2022/04/06 10:59:28;;;;;;;6.43;1.48;;;;;;;9.97;67.42;99721.22;5195292;28;20040;-77
2022/04/06 11:02:25;;;;;;;0.30;0.30;;;;;;;10.11;67.23;99728.53;5212630;28;20120;-77
2022/04/06 11:04:59;;;;;;;1.20;1.15;;;;;;;10.13;66.55;99718.81;5195277;28;20527;-77
2022/04/06 11:10:06;;;;;;;0.30;0.30;;;;;;;10.26;66.67;99706.91;5215653;28;20065;-77
2022/04/06 11:10:25;;;;;;;0.30;0.30;;;;;;;10.35;66.16;99708.28;5213307;28;20057;-76
2022/04/06 11:13:06;;;;;;;3.10;0.75;;;;;;;10.43;66.66;99697.50;5209372;28;20028;-77
2022/04/06 11:15:41;;;;;;;0.40;0.40;;;;;;;10.44;66.01;99704.47;5208851;28;20535;-77
2022/04/06 11:18:43;;;;;;;0.30;0.30;;;;;;;10.47;65.84;99693.81;5215282;28;20025;-77
2022/04/06 11:21:14;;;;;;;0.60;0.60;;;;;;;10.55;65.79;99699.59;5238807;22;20049;-76
2022/04/06 11:23:45;;;;;;;0.30;0.30;;;;;;;10.50;65.26;99696.31;5238079;28;20162;-78
2022/04/06 11:26:15;;;;;;;0.30;0.30;;;;;;;10.55;64.91;99705.69;5233703;28;20527;-77
2022/04/06 11:28:58;;;;;;;5.65;1.25;;;;;;;10.53;66.20;99714.56;5231440;28;20033;-77
2022/04/06 11:31:29;;;;;;;0.30;0.30;;;;;;;10.63;65.77;99704.50;5201058;28;20044;-78
2022/04/06 11:33:59;;;;;;;0.40;0.40;;;;;;;10.48;65.19;99695.53;5175535;28;20715;-80
2022/04/06 11:36:36;;;;;;;0.30;0.30;;;;;;;10.49;65.45;99695.47;5220065;28;20294;-77
2022/04/06 11:39:07;;;;;;;0.77;0.60;;;;;;;10.45;65.79;99690.44;5208424;28;20399;-76
2022/04/06 11:41:44;;;;;;;0.40;0.40;;;;;;;10.41;65.54;99688.84;5189541;28;20390;-78
2022/04/06 11:44:19;;;;;;;1.02;0.65;;;;;;;10.32;65.69;99690.91;5182590;28;20121;-76
2022/04/06 11:46:49;;;;;;;1.48;1.20;;;;;;;10.37;65.38;99690.75;5178298;28;20041;-77
2022/04/06 11:49:24;;;;;;;0.30;0.30;;;;;;;10.29;65.81;99693.66;5192387;28;20047;-77
2022/04/06 11:51:56;;;;;;;3.15;2.85;;;;;;;10.34;65.30;99683.84;5196957;28;20515;-78
2022/04/06 11:54:27;;;;;;;0.25;0.25;;;;;;;10.28;65.92;99689.34;5167854;28;20045;-78
2022/04/06 11:56:57;;;;;;;9.02;1.63;;;;;;;10.34;66.39;99681.22;5204268;28;20034;-77
2022/04/06 11:59:32;;;;;;;0.95;0.95;;;;;;;10.35;65.82;99679.44;5205795;28;20037;-79
2022/04/06 12:02:02;;;;;;;0.52;0.52;;;;;;;10.46;65.56;99677.25;5186872;28;20064;-77
2022/04/06 12:04:35;;;;;;;0.30;0.30;;;;;;;10.34;66.20;99673.34;5184176;28;20036;-77
2022/04/06 12:07:18;;;;;;;0.30;0.30;;;;;;;10.31;65.33;99670.84;5178962;28;20033;-78
2022/04/06 12:09:51;;;;;;;0.40;0.40;;;;;;;10.20;65.77;99666.06;5186960;28;20042;-78